メインページ
METAR-TAF:

METAR-TAF

空港 :

ヘルシンキ・ヴァンター国際空港

ヘルシンキ, フィンランド

緯度: 60-19N, 経度: 024-58E, 海抜: 51m

現時点の気象観測

当レポートは31分前の10:20(UTC)に作成
南西の風 15kt
気温 23°C
湿度 27%
気圧 1028 hPa
視程10km以上
1,500メートル以下は雲なし、積乱雲なし

METAR: EFHK 211020Z 22015KT CAVOK 23/03 Q1028 NOSIG

時間: 13:51 (10:51 UTC)

予報

当レポートは2時間25分前の08:26(UTC)に作成
予報は21日の 09時(UTC)から 22日の 09時(UTC)まで有効
南西の風 12kt
視程10km以上
1,500メートル以下は雲なし、積乱雲なし
21日の 17時(UTC)から 21日の 19時(UTC)まで徐々に
変向風 2kt

TAF: EFHK 210826Z 2109/2209 22012KT CAVOK BECMG 2117/2119 VRB02KT

4,000以上の空港の気象観測と天気予報(METAR報とTAF報)

利用可能な観測所は地図上に黄色い丸と赤い丸で示す。

丸の上にカーソルを重ねると観測所名を参照できる。

次にクリックすると気象観測と天気予報を参照できる。

マップの切り替え:黒色「×」印の緑ボタンをクリックして拡大、「-」印の緑ボタンをクリックして縮小、緑色の三角印をクリックして隣りの地図に切り替え


METAR-TAF: